Terminal Aerodrome Forecast
Issued by NWS Charleston, WV

Current Version | Previous Version | Graphics & Text | Print | Product List | Glossary On
Versions: 1 2 3 4 5 6 7 8 9 10 11 12 13 14 15 16 17 18 19 20 21 22 23 24 25 26 27 28
000
FTUS41 KRLX 012300
TAFBKW
TAF
KBKW 012330Z 0200/0224 20004KT 6SM -RA BR OVC015
     FM020200 24005KT 6SM BR OVC015
     FM020500 27005KT 5SM BR OVC010
     FM020800 29006KT 5SM -RA BR OVC008
     FM021000 30007KT 5SM BR OVC010
     FM021300 31009KT P6SM BKN015
     FM021700 31009KT P6SM BKN025
     FM021900 31008KT P6SM SCT250=

USA.gov is the U.S. government's official web portal to all federal, state and local government web resources and services.